Time;durP1;ratioP1;P1;durP2;ratioP2;P2;SDS_P1;SDS_P2;PMS_P1;PMS_P2;Temp;Humidity;BMP_temperature;BMP_pressure;BME280_temperature;BME280_humidity;BME280_pressure;Samples;Min_cycle;Max_cycle;Signal;HPM_P1;HPM_P2
2023/10/16 00:01:11;;;;;;;13.68;1.42;;;;;;;;;;5157392;27;20142;-72
2023/10/16 00:03:56;;;;;;;14.23;1.65;;;;;;;;;;5156689;27;20015;-71
2023/10/16 00:06:49;;;;;;;16.23;1.55;;;;;;;;;;5157304;27;20408;-72
2023/10/16 00:09:34;;;;;;;3.95;1.45;;;;;;;;;;5156965;27;20107;-71
2023/10/16 00:12:20;;;;;;;2.88;1.48;;;;;;;;;;5157858;27;20023;-71
2023/10/16 00:15:07;;;;;;;4.47;1.40;;;;;;;;;;5157771;27;20027;-73
2023/10/16 00:17:56;;;;;;;3.65;1.45;;;;;;;;;;5156680;27;20110;-72
2023/10/16 00:20:42;;;;;;;4.53;1.52;;;;;;;;;;5156219;27;20022;-71
2023/10/16 00:23:30;;;;;;;4.63;1.58;;;;;;;;;;5153391;27;20023;-71
2023/10/16 00:26:22;;;;;;;6.10;1.73;;;;;;;;;;5136205;27;20019;-71
2023/10/16 00:29:19;;;;;;;3.03;1.67;;;;;;;;;;5136122;27;20106;-71
2023/10/16 00:32:07;;;;;;;6.25;1.90;;;;;;;;;;5137234;27;20129;-69
2023/10/16 00:34:52;;;;;;;3.17;1.60;;;;;;;;;;5136214;27;20509;-70
2023/10/16 00:37:38;;;;;;;7.38;2.80;;;;;;;;;;5135156;27;20023;-71
2023/10/16 00:40:33;;;;;;;2.83;1.92;;;;;;;;;;5134699;27;20357;-71
2023/10/16 00:43:22;;;;;;;7.43;1.90;;;;;;;;;;5135743;27;20030;-71
2023/10/16 00:46:08;;;;;;;3.85;2.10;;;;;;;;;;5136922;27;20043;-71
2023/10/16 00:48:54;;;;;;;4.25;2.08;;;;;;;;;;5146623;27;20042;-71
2023/10/16 00:51:40;;;;;;;5.88;2.08;;;;;;;;;;5175767;27;20034;-71
2023/10/16 00:54:30;;;;;;;3.70;2.17;;;;;;;;;;5160290;27;20015;-71
2023/10/16 00:57:17;;;;;;;4.65;2.38;;;;;;;;;;5175764;27;20094;-72
2023/10/16 01:00:12;;;;;;;5.95;2.15;;;;;;;;;;5176659;27;20026;-70
2023/10/16 01:02:57;;;;;;;4.13;2.00;;;;;;;;;;5160018;27;20087;-71
2023/10/16 01:05:43;;;;;;;8.63;2.70;;;;;;;;;;5175720;27;20448;-71
2023/10/16 01:08:29;;;;;;;9.00;3.00;;;;;;;;;;5161221;27;20451;-71
2023/10/16 01:11:15;;;;;;;6.78;3.03;;;;;;;;;;5176370;27;20014;-71
2023/10/16 01:14:03;;;;;;;4.85;3.13;;;;;;;;;;5176486;27;20023;-71
2023/10/16 01:16:49;;;;;;;7.18;2.75;;;;;;;;;;5176029;27;20109;-71
2023/10/16 01:19:44;;;;;;;4.60;2.95;;;;;;;;;;5175231;27;20026;-71
2023/10/16 01:22:30;;;;;;;4.55;3.10;;;;;;;;;;5155501;27;20033;-71
2023/10/16 01:25:15;;;;;;;7.65;3.53;;;;;;;;;;5147418;27;20046;-71
2023/10/16 01:28:03;;;;;;;4.80;3.60;;;;;;;;;;5146642;27;20148;-70
2023/10/16 01:30:49;;;;;;;9.32;3.83;;;;;;;;;;5160291;27;20102;-71
2023/10/16 01:33:35;;;;;;;8.95;4.43;;;;;;;;;;5156945;27;20079;-70
2023/10/16 01:36:21;;;;;;;7.93;4.75;;;;;;;;;;5157283;27;20089;-71
2023/10/16 01:39:30;;;;;;;11.68;4.63;;;;;;;;;;5157569;27;20019;-70
2023/10/16 01:42:12;;;;;;;6.20;4.60;;;;;;;;;;5156546;27;20015;-70
2023/10/16 01:44:59;;;;;;;8.68;4.47;;;;;;;;;;5155986;27;20444;-71
2023/10/16 01:47:44;;;;;;;15.05;5.03;;;;;;;;;;5155984;27;20034;-71
2023/10/16 01:50:30;;;;;;;7.18;4.07;;;;;;;;;;5155172;27;20070;-71
2023/10/16 01:53:21;;;;;;;7.70;4.72;;;;;;;;;;5154918;27;20015;-71
2023/10/16 01:56:17;;;;;;;6.43;4.75;;;;;;;;;;5156282;27;20071;-71
2023/10/16 01:59:03;;;;;;;7.38;4.57;;;;;;;;;;5155279;27;20441;-70
2023/10/16 02:01:49;;;;;;;6.55;4.03;;;;;;;;;;5155648;27;20018;-71
2023/10/16 02:04:36;;;;;;;6.55;4.15;;;;;;;;;;5155428;27;20082;-71
2023/10/16 02:07:29;;;;;;;7.50;4.28;;;;;;;;;;5154716;27;20019;-70
2023/10/16 02:10:15;;;;;;;5.50;3.90;;;;;;;;;;5140520;27;20037;-71
2023/10/16 02:13:01;;;;;;;5.68;3.90;;;;;;;;;;5154347;27;20436;-71
2023/10/16 02:15:47;;;;;;;8.23;4.20;;;;;;;;;;5154748;27;20106;-70
2023/10/16 02:18:42;;;;;;;6.13;4.05;;;;;;;;;;5154651;27;20037;-71
2023/10/16 02:21:28;;;;;;;8.10;4.50;;;;;;;;;;5153531;27;20038;-70
2023/10/16 02:24:16;;;;;;;7.65;4.75;;;;;;;;;;5154810;27;20030;-70
2023/10/16 02:27:02;;;;;;;7.35;4.75;;;;;;;;;;5140568;27;20057;-71
2023/10/16 02:29:51;;;;;;;8.52;5.32;;;;;;;;;;5154939;27;20018;-71
2023/10/16 02:32:38;;;;;;;6.93;5.40;;;;;;;;;;5155200;27;20046;-70
2023/10/16 02:35:23;;;;;;;8.50;5.72;;;;;;;;;;5155021;27;20027;-71
2023/10/16 02:38:14;;;;;;;8.68;5.45;;;;;;;;;;5154241;27;20018;-71
2023/10/16 02:41:07;;;;;;;10.52;5.63;;;;;;;;;;5155388;27;20027;-71
2023/10/16 02:43:52;;;;;;;7.75;5.18;;;;;;;;;;5154343;27;20105;-71
2023/10/16 02:46:38;;;;;;;7.63;5.78;;;;;;;;;;5154762;27;20026;-72
2023/10/16 02:49:24;;;;;;;9.05;5.60;;;;;;;;;;5153766;27;20047;-70
2023/10/16 02:52:09;;;;;;;12.88;5.47;;;;;;;;;;5155029;27;20022;-71
2023/10/16 02:54:56;;;;;;;8.88;6.25;;;;;;;;;;5139576;27;20037;-71
2023/10/16 02:57:42;;;;;;;10.35;6.60;;;;;;;;;;5154742;27;20023;-71
2023/10/16 03:00:34;;;;;;;9.80;6.65;;;;;;;;;;5140341;27;20112;-71
2023/10/16 03:03:21;;;;;;;12.90;6.82;;;;;;;;;;5154752;27;20444;-71
2023/10/16 03:06:09;;;;;;;9.30;6.78;;;;;;;;;;5158591;27;20022;-70
2023/10/16 03:09:13;;;;;;;8.68;6.18;;;;;;;;;;5158693;27;20019;-70
2023/10/16 03:12:08;;;;;;;14.07;6.60;;;;;;;;;;5159520;27;20021;-70
2023/10/16 03:14:58;;;;;;;10.18;6.88;;;;;;;;;;5158179;27;20030;-71
2023/10/16 03:17:43;;;;;;;9.85;7.00;;;;;;;;;;5157932;27;20398;-72
2023/10/16 03:20:35;;;;;;;10.10;6.90;;;;;;;;;;5158296;27;20106;-71
2023/10/16 03:23:21;;;;;;;10.63;6.30;;;;;;;;;;5158008;27;20014;-70
2023/10/16 03:26:08;;;;;;;10.35;6.55;;;;;;;;;;5157803;27;20029;-71
2023/10/16 03:28:56;;;;;;;9.75;6.32;;;;;;;;;;5158202;27;20345;-72
2023/10/16 03:31:41;;;;;;;10.75;6.78;;;;;;;;;;5144402;27;20155;-71
2023/10/16 03:34:27;;;;;;;14.27;6.50;;;;;;;;;;5158408;27;20497;-70
2023/10/16 03:37:14;;;;;;;10.77;6.07;;;;;;;;;;5158379;27;20018;-71
2023/10/16 03:40:04;;;;;;;10.77;6.07;;;;;;;;;;5157928;27;20376;-71
2023/10/16 03:42:56;;;;;;;7.90;5.63;;;;;;;;;;5158358;27;20026;-70
2023/10/16 03:45:42;;;;;;;9.00;5.45;;;;;;;;;;5158013;27;20052;-69
2023/10/16 03:48:27;;;;;;;9.90;5.72;;;;;;;;;;5158259;27;20156;-71
2023/10/16 03:51:16;;;;;;;7.63;5.50;;;;;;;;;;5157470;27;20502;-70
2023/10/16 03:54:02;;;;;;;7.10;5.45;;;;;;;;;;5158544;27;20035;-70
2023/10/16 03:56:48;;;;;;;9.20;5.28;;;;;;;;;;5158660;27;20101;-71
2023/10/16 03:59:33;;;;;;;11.07;4.95;;;;;;;;;;5159914;27;20030;-70
2023/10/16 04:02:23;;;;;;;7.43;4.78;;;;;;;;;;5147742;27;20060;-70
2023/10/16 04:05:27;;;;;;;8.60;5.35;;;;;;;;;;5167936;27;20023;-72
2023/10/16 04:08:18;;;;;;;10.75;5.35;;;;;;;;;;5168947;27;20083;-69
2023/10/16 04:11:03;;;;;;;8.40;4.95;;;;;;;;;;5164449;27;20083;-69
2023/10/16 04:13:49;;;;;;;7.22;4.32;;;;;;;;;;5166462;27;20098;-70
2023/10/16 04:16:43;;;;;;;9.63;4.68;;;;;;;;;;5164506;27;20011;-69
2023/10/16 04:19:36;;;;;;;11.13;4.32;;;;;;;;;;5165000;27;20383;-70
2023/10/16 04:22:25;;;;;;;6.07;4.47;;;;;;;;;;5165158;27;20026;-70
2023/10/16 04:25:19;;;;;;;9.05;4.40;;;;;;;;;;5166614;27;20026;-71
2023/10/16 04:28:29;;;;;;;7.40;4.30;;;;;;;;;;5162811;27;20441;-71
2023/10/16 04:34:31;;;;;;;8.18;4.32;;;;;;;;;;5164831;27;20101;-70
2023/10/16 04:46:16;;;;;;;6.57;3.90;;;;;;;;;;5159353;27;20029;-70
2023/10/16 04:49:04;;;;;;;7.85;3.38;;;;;;;;;;5158143;27;20043;-71
2023/10/16 04:51:52;;;;;;;7.38;3.38;;;;;;;;;;5158804;27;20094;-70
2023/10/16 04:54:59;;;;;;;8.00;3.00;;;;;;;;;;5157346;27;20069;-70
2023/10/16 04:57:47;;;;;;;4.90;2.92;;;;;;;;;;5157269;27;20049;-70
2023/10/16 05:18:42;;;;;;;5.25;2.72;;;;;;;;;;5174673;27;20025;-71
2023/10/16 06:16:43;;;;;;;4.65;2.42;;;;;;;;;;5168338;27;20015;-70
2023/10/16 06:19:28;;;;;;;5.72;2.50;;;;;;;;;;5172392;27;20030;-69
2023/10/16 06:22:14;;;;;;;4.43;2.50;;;;;;;;;;5170096;27;20010;-73
2023/10/16 06:25:00;;;;;;;7.53;2.58;;;;;;;;;;5171659;27;20026;-72
2023/10/16 06:27:46;;;;;;;6.70;2.47;;;;;;;;;;5172693;27;20093;-70
2023/10/16 06:30:37;;;;;;;6.85;2.70;;;;;;;;;;5173949;27;20026;-70
2023/10/16 06:33:23;;;;;;;5.35;2.83;;;;;;;;;;5172115;27;20055;-69
2023/10/16 06:36:10;;;;;;;22.40;11.88;;;;;;;;;;5158042;27;20018;-70
2023/10/16 06:38:58;;;;;;;6.18;3.30;;;;;;;;;;5173991;27;20026;-70
2023/10/16 06:41:43;;;;;;;5.72;2.88;;;;;;;;;;5176793;27;20046;-71
2023/10/16 06:44:34;;;;;;;6.13;2.40;;;;;;;;;;5178112;27;20014;-72
2023/10/16 06:47:35;;;;;;;7.28;2.50;;;;;;;;;;5173167;27;20760;-72
2023/10/16 06:53:09;;;;;;;4.60;2.40;;;;;;;;;;5179148;27;20155;-73
2023/10/16 06:55:54;;;;;;;5.50;2.55;;;;;;;;;;5172379;27;20105;-71
2023/10/16 06:58:40;;;;;;;5.43;2.67;;;;;;;;;;5176668;27;20028;-72
2023/10/16 07:01:26;;;;;;;10.65;2.63;;;;;;;;;;5175747;27;20070;-71
2023/10/16 07:04:11;;;;;;;4.18;2.53;;;;;;;;;;5176460;27;20022;-71
2023/10/16 07:06:57;;;;;;;7.53;3.00;;;;;;;;;;5177251;27;20154;-69
2023/10/16 07:09:54;;;;;;;7.15;3.35;;;;;;;;;;5173015;27;20073;-70
2023/10/16 07:15:46;;;;;;;6.45;4.63;;;;;;;;;;5176032;27;20101;-70
2023/10/16 07:18:33;;;;;;;6.18;3.03;;;;;;;;;;5162230;27;20083;-71
2023/10/16 07:21:19;;;;;;;7.40;3.15;;;;;;;;;;5177832;27;20029;-70
2023/10/16 07:24:04;;;;;;;5.85;3.05;;;;;;;;;;5174874;27;20037;-71
2023/10/16 07:26:50;;;;;;;6.72;3.63;;;;;;;;;;5177590;27;20026;-70
2023/10/16 07:29:38;;;;;;;7.78;3.50;;;;;;;;;;5170802;27;20079;-70
2023/10/16 07:32:23;;;;;;;8.77;3.40;;;;;;;;;;5176026;27;20022;-71
2023/10/16 07:35:17;;;;;;;6.57;3.40;;;;;;;;;;5173095;27;20018;-69
2023/10/16 07:38:05;;;;;;;9.27;4.32;;;;;;;;;;5175863;27;20054;-71
2023/10/16 07:40:58;;;;;;;6.15;3.40;;;;;;;;;;5175304;27;20438;-70
2023/10/16 07:43:46;;;;;;;7.57;3.20;;;;;;;;;;5176406;27;20068;-70
2023/10/16 07:46:32;;;;;;;5.95;3.13;;;;;;;;;;5169098;27;20029;-70
2023/10/16 07:49:18;;;;;;;6.60;3.28;;;;;;;;;;5174416;27;20067;-70
2023/10/16 07:52:05;;;;;;;7.90;3.05;;;;;;;;;;5175509;27;20023;-70
2023/10/16 07:54:51;;;;;;;4.20;2.40;;;;;;;;;;5173812;27;20026;-71
2023/10/16 07:57:39;;;;;;;4.72;2.20;;;;;;;;;;5175758;27;20026;-69
2023/10/16 08:00:26;;;;;;;6.07;2.90;;;;;;;;;;5174612;27;20034;-69
2023/10/16 08:03:13;;;;;;;5.22;2.33;;;;;;;;;;5163958;27;20041;-69
2023/10/16 08:06:04;;;;;;;5.13;3.03;;;;;;;;;;5175246;27;20044;-71
2023/10/16 08:08:50;;;;;;;4.63;2.22;;;;;;;;;;5161269;27;20014;-70
2023/10/16 08:11:42;;;;;;;2.97;1.70;;;;;;;;;;5174161;27;20029;-69
2023/10/16 08:14:31;;;;;;;3.85;1.83;;;;;;;;;;5174365;27;20018;-70
2023/10/16 08:17:17;;;;;;;7.88;1.90;;;;;;;;;;5175417;27;20022;-70
2023/10/16 08:20:08;;;;;;;3.75;1.80;;;;;;;;;;5172487;27;20041;-70
2023/10/16 08:22:54;;;;;;;3.35;1.10;;;;;;;;;;5175397;27;20067;-70
2023/10/16 08:25:40;;;;;;;3.63;1.27;;;;;;;;;;5168254;27;20014;-70
2023/10/16 08:28:35;;;;;;;1.27;1.05;;;;;;;;;;5173313;27;20048;-70
2023/10/16 08:31:23;;;;;;;5.78;0.90;;;;;;;;;;5171328;27;20070;-70
2023/10/16 08:34:11;;;;;;;5.82;1.13;;;;;;;;;;5174481;27;20026;-69
2023/10/16 08:36:58;;;;;;;5.10;0.95;;;;;;;;;;5174801;27;20070;-70
2023/10/16 08:39:50;;;;;;;1.42;1.02;;;;;;;;;;5175221;27;20483;-70
2023/10/16 08:42:37;;;;;;;3.83;1.20;;;;;;;;;;5174987;27;20360;-70
2023/10/16 08:45:26;;;;;;;3.67;1.00;;;;;;;;;;5164551;27;20111;-69
2023/10/16 08:48:17;;;;;;;4.95;1.00;;;;;;;;;;5175338;27;20379;-69
2023/10/16 08:51:08;;;;;;;2.53;0.80;;;;;;;;;;5169458;27;20463;-70
2023/10/16 08:53:59;;;;;;;2.38;1.27;;;;;;;;;;5168607;27;20018;-69
2023/10/16 08:56:45;;;;;;;1.25;0.77;;;;;;;;;;5175696;27;20125;-69
2023/10/16 08:59:32;;;;;;;2.97;0.93;;;;;;;;;;5174346;27;20019;-70
2023/10/16 09:02:19;;;;;;;1.60;0.88;;;;;;;;;;5172163;27;20030;-69
2023/10/16 09:05:08;;;;;;;5.95;1.30;;;;;;;;;;5175459;27;20015;-71
2023/10/16 09:07:53;;;;;;;1.20;0.88;;;;;;;;;;5175236;27;20756;-70
2023/10/16 09:10:40;;;;;;;3.70;1.27;;;;;;;;;;5153882;27;20083;-69
2023/10/16 09:13:35;;;;;;;3.17;1.10;;;;;;;;;;5170229;27;20089;-70
2023/10/16 09:16:23;;;;;;;1.85;1.25;;;;;;;;;;5174041;27;20090;-69
2023/10/16 09:19:11;;;;;;;2.65;1.08;;;;;;;;;;5173074;27;20360;-70
2023/10/16 09:21:57;;;;;;;1.63;1.05;;;;;;;;;;5170557;27;20494;-68
2023/10/16 09:24:44;;;;;;;2.70;1.40;;;;;;;;;;5165528;27;20074;-69
2023/10/16 09:27:30;;;;;;;1.95;0.95;;;;;;;;;;5174058;27;20038;-70
2023/10/16 09:30:16;;;;;;;2.22;1.30;;;;;;;;;;5174501;27;20097;-71
2023/10/16 09:33:03;;;;;;;0.80;0.80;;;;;;;;;;5173534;27;20018;-70
2023/10/16 09:35:50;;;;;;;3.75;1.40;;;;;;;;;;5174731;27;20034;-70
2023/10/16 09:38:42;;;;;;;2.95;1.05;;;;;;;;;;5168832;27;20023;-69
2023/10/16 09:44:22;;;;;;;4.90;1.30;;;;;;;;;;5174581;27;20023;-70
2023/10/16 09:47:27;;;;;;;2.22;1.15;;;;;;;;;;5174964;27;20464;-69
2023/10/16 09:50:19;;;;;;;1.95;1.50;;;;;;;;;;5160554;27;20050;-70
2023/10/16 09:53:08;;;;;;;7.88;3.30;;;;;;;;;;5173818;27;20022;-70
2023/10/16 09:55:58;;;;;;;2.40;1.33;;;;;;;;;;5173143;27;20022;-69
2023/10/16 09:58:45;;;;;;;2.28;1.05;;;;;;;;;;5159029;27;20042;-70
2023/10/16 10:01:31;;;;;;;2.33;0.90;;;;;;;;;;5171720;27;20207;-70
2023/10/16 10:04:19;;;;;;;1.48;0.90;;;;;;;;;;5173502;27;20086;-70
2023/10/16 10:07:13;;;;;;;2.70;1.30;;;;;;;;;;5174293;27;20018;-70
2023/10/16 10:09:59;;;;;;;3.45;1.30;;;;;;;;;;5159855;27;20025;-69
2023/10/16 10:12:47;;;;;;;2.10;1.10;;;;;;;;;;5161853;27;20086;-71
2023/10/16 10:15:35;;;;;;;3.05;0.95;;;;;;;;;;5173709;27;20105;-70
2023/10/16 10:18:35;;;;;;;2.30;1.23;;;;;;;;;;5172710;27;20355;-70
2023/10/16 10:21:30;;;;;;;2.55;1.10;;;;;;;;;;5173687;27;20341;-69
2023/10/16 10:24:15;;;;;;;2.50;1.40;;;;;;;;;;5173106;27;20022;-71
2023/10/16 10:27:05;;;;;;;4.32;1.63;;;;;;;;;;5154326;27;20018;-71
2023/10/16 10:29:55;;;;;;;3.30;1.67;;;;;;;;;;5154155;27;20011;-72
2023/10/16 10:32:41;;;;;;;2.55;1.55;;;;;;;;;;5153706;27;20030;-73
2023/10/16 10:35:38;;;;;;;3.22;1.60;;;;;;;;;;5153047;27;20159;-72
2023/10/16 10:38:26;;;;;;;1.70;1.38;;;;;;;;;;5152967;27;20054;-72
2023/10/16 10:41:15;;;;;;;2.55;2.10;;;;;;;;;;5154369;27;20011;-72
2023/10/16 10:44:08;;;;;;;2.33;1.98;;;;;;;;;;5154952;27;20124;-72
2023/10/16 10:46:54;;;;;;;2.25;2.03;;;;;;;;;;5155700;27;20465;-73
2023/10/16 10:49:41;;;;;;;4.65;2.10;;;;;;;;;;5156368;27;20099;-72
2023/10/16 10:52:34;;;;;;;3.08;2.03;;;;;;;;;;5144030;27;20026;-71
2023/10/16 10:55:22;;;;;;;3.72;2.63;;;;;;;;;;5157649;27;20180;-71
2023/10/16 10:58:14;;;;;;;7.22;2.00;;;;;;;;;;5141940;27;20088;-71
2023/10/16 11:01:26;;;;;;;8.38;4.40;;;;;;;;;;5154775;27;20037;-70
2023/10/16 11:04:15;;;;;;;2.55;1.90;;;;;;;;;;5153974;27;20033;-71
2023/10/16 11:07:23;;;;;;;2.90;1.77;;;;;;;;;;5141199;27;20102;-70
2023/10/16 11:10:21;;;;;;;2.03;1.80;;;;;;;;;;5157067;27;20341;-73
2023/10/16 11:13:14;;;;;;;4.10;2.25;;;;;;;;;;5141961;27;20015;-71
2023/10/16 11:16:07;;;;;;;5.72;2.33;;;;;;;;;;5157709;27;20019;-72
2023/10/16 11:18:57;;;;;;;5.93;2.65;;;;;;;;;;5144472;27;20042;-70
2023/10/16 11:21:43;;;;;;;5.43;2.63;;;;;;;;;;5141259;27;20029;-72
2023/10/16 11:24:32;;;;;;;3.65;2.10;;;;;;;;;;5155432;27;20019;-71
2023/10/16 11:27:19;;;;;;;6.43;2.30;;;;;;;;;;5159835;27;20015;-70
2023/10/16 11:30:11;;;;;;;2.83;2.10;;;;;;;;;;5160137;27;20110;-73
2023/10/16 11:32:57;;;;;;;2.63;2.05;;;;;;;;;;5159474;27;20070;-72
2023/10/16 11:35:46;;;;;;;4.53;2.55;;;;;;;;;;5160227;27;20023;-72
2023/10/16 11:38:35;;;;;;;3.22;1.80;;;;;;;;;;5159622;27;20014;-74
2023/10/16 11:41:24;;;;;;;3.00;2.17;;;;;;;;;;5160007;27;20027;-71
2023/10/16 11:44:14;;;;;;;3.53;2.50;;;;;;;;;;5144056;27;20018;-71
2023/10/16 11:50:17;;;;;;;3.85;2.00;;;;;;;;;;5159699;27;20060;-71
2023/10/16 11:53:07;;;;;;;7.05;1.90;;;;;;;;;;5159985;27;20019;-71
2023/10/16 11:55:52;;;;;;;3.15;2.22;;;;;;;;;;5158706;27;20196;-71
2023/10/16 11:58:39;;;;;;;2.10;1.88;;;;;;;;;;5159180;27;20031;-79
2023/10/16 12:01:26;;;;;;;3.83;2.53;;;;;;;;;;5170129;27;20027;-80
2023/10/16 12:04:12;;;;;;;3.17;2.00;;;;;;;;;;5140521;27;20382;-79
2023/10/16 12:06:57;;;;;;;2.53;1.88;;;;;;;;;;5157536;27;20049;-80
2023/10/16 12:09:48;;;;;;;2.42;2.10;;;;;;;;;;5176965;27;20026;-80
2023/10/16 12:12:33;;;;;;;2.53;1.80;;;;;;;;;;5163076;27;20026;-82
2023/10/16 12:15:19;;;;;;;3.92;1.83;;;;;;;;;;5162932;27;20454;-79
2023/10/16 12:18:09;;;;;;;2.47;2.10;;;;;;;;;;5163026;27;20030;-80
2023/10/16 12:21:04;;;;;;;3.63;2.20;;;;;;;;;;5177763;27;20033;-80
2023/10/16 12:23:50;;;;;;;1.83;1.63;;;;;;;;;;5179041;27;20018;-77
2023/10/16 12:26:36;;;;;;;2.03;1.83;;;;;;;;;;5177240;27;20158;-77
2023/10/16 12:29:22;;;;;;;5.30;2.00;;;;;;;;;;5177715;27;20011;-78
2023/10/16 12:32:08;;;;;;;3.22;1.70;;;;;;;;;;5177883;27;20029;-77
2023/10/16 12:34:54;;;;;;;2.15;1.27;;;;;;;;;;5177364;27;20089;-78
2023/10/16 12:37:45;;;;;;;3.20;1.67;;;;;;;;;;5175784;27;20102;-77
2023/10/16 12:40:37;;;;;;;1.65;1.30;;;;;;;;;;5161243;27;20050;-79
2023/10/16 12:43:27;;;;;;;1.70;1.20;;;;;;;;;;5161639;27;20074;-78
2023/10/16 12:46:12;;;;;;;2.22;1.08;;;;;;;;;;5161308;27;20045;-79
2023/10/16 12:48:59;;;;;;;8.55;1.58;;;;;;;;;;5160682;27;20049;-78
2023/10/16 12:51:44;;;;;;;1.58;1.25;;;;;;;;;;5177641;27;20053;-78
2023/10/16 12:54:31;;;;;;;2.35;1.60;;;;;;;;;;5170172;27;20346;-80
2023/10/16 12:57:18;;;;;;;1.63;1.30;;;;;;;;;;5155760;27;20114;-77
2023/10/16 13:00:14;;;;;;;2.75;1.20;;;;;;;;;;5156048;27;20022;-77
2023/10/16 13:03:15;;;;;;;3.55;1.60;;;;;;;;;;5156891;27;20023;-77
2023/10/16 13:06:05;;;;;;;3.17;1.38;;;;;;;;;;5156300;27;20034;-78
2023/10/16 13:08:51;;;;;;;5.30;1.60;;;;;;;;;;5155902;27;20046;-77
2023/10/16 13:11:36;;;;;;;3.25;1.27;;;;;;;;;;5155068;27;20026;-78
2023/10/16 13:14:24;;;;;;;2.33;1.00;;;;;;;;;;5155057;27;20026;-79
2023/10/16 13:17:10;;;;;;;3.08;1.20;;;;;;;;;;5154879;27;20018;-77
2023/10/16 13:19:56;;;;;;;3.30;1.38;;;;;;;;;;5156147;27;20499;-78
2023/10/16 13:22:44;;;;;;;3.30;1.25;;;;;;;;;;5157102;27;20038;-78
2023/10/16 13:25:48;;;;;;;4.40;1.50;;;;;;;;;;5156250;27;20421;-78
2023/10/16 13:28:36;;;;;;;3.05;1.45;;;;;;;;;;5156205;27;20010;-77
2023/10/16 13:31:22;;;;;;;4.90;1.20;;;;;;;;;;5156787;27;20098;-77
2023/10/16 13:34:11;;;;;;;1.75;1.10;;;;;;;;;;5156058;27;20436;-77
2023/10/16 13:36:56;;;;;;;1.67;1.02;;;;;;;;;;5155762;27;20049;-77
2023/10/16 13:39:43;;;;;;;2.33;1.13;;;;;;;;;;5156373;27;20022;-79
2023/10/16 13:42:29;;;;;;;3.13;1.55;;;;;;;;;;5162387;27;20010;-78
2023/10/16 13:45:14;;;;;;;2.05;1.00;;;;;;;;;;5139279;27;20030;-77
2023/10/16 13:48:04;;;;;;;2.80;1.10;;;;;;;;;;5153871;27;20024;-76
2023/10/16 13:50:50;;;;;;;3.97;1.77;;;;;;;;;;5133840;27;20139;-75
2023/10/16 13:53:38;;;;;;;2.70;1.20;;;;;;;;;;5133709;27;20031;-76
2023/10/16 13:56:24;;;;;;;3.03;1.20;;;;;;;;;;5134065;27;20490;-73
2023/10/16 13:59:11;;;;;;;3.60;1.20;;;;;;;;;;5134053;27;20031;-76
2023/10/16 14:02:05;;;;;;;2.40;1.17;;;;;;;;;;5136600;27;20058;-76
2023/10/16 14:04:52;;;;;;;5.35;1.65;;;;;;;;;;5134033;27;20019;-77
2023/10/16 14:07:38;;;;;;;5.97;1.55;;;;;;;;;;5134257;27;20042;-77
2023/10/16 14:10:23;;;;;;;2.65;1.25;;;;;;;;;;5120485;27;20072;-74
2023/10/16 14:13:18;;;;;;;3.95;2.13;;;;;;;;;;5134094;27;20019;-74
2023/10/16 14:16:11;;;;;;;3.90;1.40;;;;;;;;;;5136170;27;20113;-74
2023/10/16 14:18:57;;;;;;;3.65;2.33;;;;;;;;;;5136137;27;20027;-75
2023/10/16 14:21:43;;;;;;;3.92;1.60;;;;;;;;;;5134430;27;20023;-75
2023/10/16 14:24:30;;;;;;;5.28;1.77;;;;;;;;;;5134236;27;20135;-75
2023/10/16 14:27:24;;;;;;;5.15;1.60;;;;;;;;;;5133745;27;20019;-73
2023/10/16 14:30:10;;;;;;;4.85;2.05;;;;;;;;;;5132759;28;20080;-73
2023/10/16 14:32:56;;;;;;;4.40;1.77;;;;;;;;;;5133259;28;20479;-73
2023/10/16 14:35:41;;;;;;;3.03;1.50;;;;;;;;;;5132492;28;20027;-73
2023/10/16 14:38:27;;;;;;;4.30;1.60;;;;;;;;;;5146251;27;20080;-73
2023/10/16 14:41:17;;;;;;;2.20;1.70;;;;;;;;;;5132467;28;20110;-73
2023/10/16 14:44:04;;;;;;;7.90;1.88;;;;;;;;;;5140414;27;20567;-72
2023/10/16 14:46:49;;;;;;;6.20;3.40;;;;;;;;;;5131752;28;20105;-73
2023/10/16 14:49:35;;;;;;;3.75;1.30;;;;;;;;;;5132257;27;20421;-74
2023/10/16 14:52:21;;;;;;;2.80;1.60;;;;;;;;;;5132297;28;20031;-72
2023/10/16 14:55:08;;;;;;;9.30;1.85;;;;;;;;;;5132907;28;20113;-73
2023/10/16 14:57:57;;;;;;;7.53;2.20;;;;;;;;;;5134309;28;20024;-73
2023/10/16 15:00:45;;;;;;;5.20;1.77;;;;;;;;;;5120010;27;20397;-74
2023/10/16 15:03:30;;;;;;;5.88;2.30;;;;;;;;;;5137935;27;20019;-73
2023/10/16 15:06:16;;;;;;;5.25;2.38;;;;;;;;;;5124066;27;20018;-73
2023/10/16 15:09:09;;;;;;;3.22;2.17;;;;;;;;;;5123341;27;20094;-74
2023/10/16 15:11:54;;;;;;;6.38;1.67;;;;;;;;;;5138850;27;20094;-72
2023/10/16 15:14:40;;;;;;;8.13;2.03;;;;;;;;;;5147147;27;20019;-73
2023/10/16 15:17:26;;;;;;;3.97;1.60;;;;;;;;;;5154730;27;20011;-73
2023/10/16 15:20:14;;;;;;;5.05;2.10;;;;;;;;;;5157701;27;20067;-74
2023/10/16 15:23:00;;;;;;;5.32;1.73;;;;;;;;;;5157666;27;20049;-73
2023/10/16 15:25:49;;;;;;;3.38;1.92;;;;;;;;;;5158305;27;20015;-73
2023/10/16 15:28:35;;;;;;;4.80;2.30;;;;;;;;;;5157348;27;20019;-72
2023/10/16 15:31:23;;;;;;;150.98;76.82;;;;;;;;;;5142355;27;20025;-73
2023/10/16 15:34:09;;;;;;;16.67;8.38;;;;;;;;;;5142419;27;20034;-72
2023/10/16 15:36:56;;;;;;;48.33;27.48;;;;;;;;;;5157651;27;20010;-72
2023/10/16 15:39:41;;;;;;;16.25;9.18;;;;;;;;;;5141485;27;20019;-73
2023/10/16 15:42:27;;;;;;;5.90;2.80;;;;;;;;;;5137301;27;20444;-72
2023/10/16 15:45:13;;;;;;;7.63;3.10;;;;;;;;;;5135876;27;20361;-72
2023/10/16 15:47:59;;;;;;;7.85;2.80;;;;;;;;;;5137216;27;20415;-73
2023/10/16 15:50:45;;;;;;;7.68;2.70;;;;;;;;;;5156039;27;20065;-73
2023/10/16 15:53:31;;;;;;;12.90;4.00;;;;;;;;;;5157890;27;20019;-74
2023/10/16 15:56:18;;;;;;;7.38;2.20;;;;;;;;;;5158222;27;20023;-73
2023/10/16 15:59:04;;;;;;;6.47;3.20;;;;;;;;;;5154380;27;20023;-73
2023/10/16 16:01:50;;;;;;;7.82;2.88;;;;;;;;;;5157622;27;20019;-74
2023/10/16 16:04:35;;;;;;;8.95;3.05;;;;;;;;;;5157187;27;20029;-74
2023/10/16 16:07:21;;;;;;;9.93;2.97;;;;;;;;;;5149553;27;20052;-73
2023/10/16 16:10:10;;;;;;;11.48;2.92;;;;;;;;;;5158016;27;20058;-73
2023/10/16 16:12:56;;;;;;;5.00;2.38;;;;;;;;;;5156868;27;20333;-74
2023/10/16 16:15:41;;;;;;;7.38;3.05;;;;;;;;;;5157122;27;20098;-74
2023/10/16 16:18:27;;;;;;;7.82;2.97;;;;;;;;;;5149983;27;20118;-73
2023/10/16 16:21:16;;;;;;;8.20;2.63;;;;;;;;;;5156635;27;20022;-74
2023/10/16 16:24:01;;;;;;;4.43;2.50;;;;;;;;;;5174287;27;20364;-74
2023/10/16 16:26:49;;;;;;;9.60;3.15;;;;;;;;;;5162907;27;20022;-74
2023/10/16 16:29:38;;;;;;;9.35;3.78;;;;;;;;;;5176869;27;20097;-74
2023/10/16 16:32:25;;;;;;;10.23;3.35;;;;;;;;;;5176690;27;20010;-72
2023/10/16 16:35:14;;;;;;;9.45;2.78;;;;;;;;;;5177079;27;20018;-73
2023/10/16 16:38:00;;;;;;;8.32;3.28;;;;;;;;;;5177631;27;20022;-69
2023/10/16 16:40:46;;;;;;;8.38;3.08;;;;;;;;;;5176278;27;20033;-71
2023/10/16 16:43:32;;;;;;;9.13;3.88;;;;;;;;;;5162337;27;20053;-71
2023/10/16 16:46:20;;;;;;;5.97;3.38;;;;;;;;;;5176846;27;20054;-72
2023/10/16 16:49:10;;;;;;;7.93;3.38;;;;;;;;;;5176701;27;20042;-72
2023/10/16 16:51:56;;;;;;;5.35;3.47;;;;;;;;;;5176820;27;20014;-72
2023/10/16 16:54:44;;;;;;;6.38;2.35;;;;;;;;;;5177683;27;20485;-74
2023/10/16 16:57:30;;;;;;;3.35;1.80;;;;;;;;;;5176458;27;20424;-76
2023/10/16 17:00:18;;;;;;;4.43;2.33;;;;;;;;;;5177063;27;20376;-75
2023/10/16 17:03:04;;;;;;;3.28;2.30;;;;;;;;;;5176667;27;20118;-75
2023/10/16 17:05:50;;;;;;;4.30;2.47;;;;;;;;;;5178261;27;20497;-75
2023/10/16 17:08:35;;;;;;;4.55;2.65;;;;;;;;;;5162067;27;20337;-75
2023/10/16 17:11:21;;;;;;;12.75;2.45;;;;;;;;;;5177836;27;20105;-75
2023/10/16 17:14:06;;;;;;;4.95;2.70;;;;;;;;;;5176779;27;20478;-70
2023/10/16 17:16:52;;;;;;;6.15;2.55;;;;;;;;;;5181574;27;20033;-72
2023/10/16 17:19:38;;;;;;;4.25;2.50;;;;;;;;;;5177766;27;20057;-71
2023/10/16 17:22:23;;;;;;;6.75;2.53;;;;;;;;;;5161519;27;20060;-71
2023/10/16 17:25:11;;;;;;;4.45;2.22;;;;;;;;;;5175575;27;20030;-71
2023/10/16 17:27:56;;;;;;;6.93;2.67;;;;;;;;;;5174729;27;20194;-72
2023/10/16 17:30:42;;;;;;;5.38;3.67;;;;;;;;;;5175834;27;20113;-75
2023/10/16 17:33:28;;;;;;;6.40;2.33;;;;;;;;;;5161517;27;20018;-72
2023/10/16 17:36:13;;;;;;;6.47;2.00;;;;;;;;;;5161575;27;20030;-72
2023/10/16 17:39:01;;;;;;;3.42;2.05;;;;;;;;;;5165530;27;20022;-72
2023/10/16 17:41:48;;;;;;;5.97;2.30;;;;;;;;;;5155602;27;20018;-73
2023/10/16 17:44:34;;;;;;;3.33;2.22;;;;;;;;;;5155157;27;20048;-73
2023/10/16 17:47:19;;;;;;;3.85;2.10;;;;;;;;;;5156908;27;20098;-73
2023/10/16 17:50:07;;;;;;;5.88;2.67;;;;;;;;;;5156031;27;20039;-72
2023/10/16 17:52:53;;;;;;;4.25;2.47;;;;;;;;;;5155301;27;20029;-73
2023/10/16 17:55:42;;;;;;;5.35;2.28;;;;;;;;;;5155394;27;20132;-73
2023/10/16 17:58:28;;;;;;;4.03;2.13;;;;;;;;;;5156675;27;20234;-74
2023/10/16 18:01:14;;;;;;;6.90;2.70;;;;;;;;;;5154742;27;20041;-76
2023/10/16 18:03:59;;;;;;;4.65;2.55;;;;;;;;;;5155609;27;20030;-73
2023/10/16 18:06:45;;;;;;;4.45;2.53;;;;;;;;;;5155159;27;20041;-73
2023/10/16 18:09:34;;;;;;;3.63;2.30;;;;;;;;;;5155388;27;20015;-74
2023/10/16 18:12:20;;;;;;;5.78;2.13;;;;;;;;;;5155583;27;20091;-74
2023/10/16 18:15:09;;;;;;;4.97;2.58;;;;;;;;;;5154563;27;20018;-76
2023/10/16 18:17:54;;;;;;;5.82;2.20;;;;;;;;;;5154611;27;20389;-75
2023/10/16 18:20:40;;;;;;;3.13;2.08;;;;;;;;;;5155207;27;20068;-73
2023/10/16 18:23:26;;;;;;;2.63;1.42;;;;;;;;;;5154939;27;20023;-73